Thursday, July 30, 2015, 12:03 AM EDT

KFDK, Frederick, Frederick Municipal Airport

Location: Frederick, MD, United States Lat: 39.417
Local Time: 12:03 AM EDT ( 4:03 GMT) Lon: -77.374
Time Zone: US/Eastern Elev: 301 ft

Show me the last for .
Show Decoded

2015-07-29 23:35 METAR KFDK 300335Z AUTO 19003KT 10SM CLR 25/23 A2997 =
2015-07-29 23:15 METAR KFDK 300315Z AUTO 19005KT 10SM CLR 25/23 A2997 RMK AO2 =
2015-07-29 22:35 METAR KFDK 300235Z AUTO 18004KT 10SM CLR 26/23 A2998 RMK AO2 =
2015-07-29 22:15 METAR KFDK 300215Z AUTO 16003KT 10SM CLR 26/23 A2998 RMK AO2 =
2015-07-29 21:55 METAR KFDK 300155Z AUTO 18004KT 10SM CLR 26/23 A2998 =
2015-07-29 21:35 METAR KFDK 300135Z AUTO 17003KT 10SM CLR 26/24 A2998 RMK AO2 =
2015-07-29 21:15 METAR KFDK 300115Z AUTO 18005KT 10SM SCT031 26/24 A2997 RMK AO2 =
2015-07-29 20:55 METAR KFDK 300055Z AUTO 18004KT 10SM CLR 27/24 A2997 =
2015-07-29 20:35 METAR KFDK 300035Z AUTO 17003KT 10SM SCT028 27/25 A2997 RMK AO2 =
2015-07-29 19:51 METAR KFDK 292351Z VRB03KT 10SM SCT032 28/26 A2997 =
2015-07-29 18:56 METAR KFDK 292256Z VRB04KT 10SM SCT031 BKN040 29/25 A2996 =
2015-07-29 17:50 METAR KFDK 292150Z 2150 10SM SCT043 BKN055 31/25 A2995 =
2015-07-29 16:45 METAR KFDK 292045Z VRB04KT 10SM SCT06 32/26 A2997 =
2015-07-29 15:47 METAR KFDK 291947Z 2006KT 10SM BKN035 BKN060 32/25 A2999 =
2015-07-29 14:45 METAR KFDK 291845Z 20005KT 10SM BKN031 BKN050 32/24 A3000 =
2015-07-29 13:52 METAR KFDK 291752Z 00000KT 10SM BKN028 BKN042 31/24 A3002 =
2015-07-29 12:50 METAR KFDK 291650Z 00000KT 7SM BKN025 30/24 A3004 =
2015-07-29 11:55 METAR KFDK 291555Z 00000KT 10SM BKN020 OVC027 28/24 A3005 =
2015-07-29 10:55 METAR KFDK 291455Z 00000KT 4SM BR OVC011 25/23 A3006 =
2015-07-29 09:55 METAR KFDK 291355Z 00000KT 3SM BR OVC007 34/23 A3005 =
2015-07-29 08:50 METAR KFDK 291250Z 24003KT 3SM BR OVC005 24/23 A3005 =
2015-07-29 07:45 METAR KFDK 291145Z 00000KT 3SM BR BKN005 23/23 A3003 =
2015-07-29 06:50 METAR KFDK 291050Z 00000KT 3SM BR BKN007 22/22 A3003 =
2015-07-29 06:25 METAR KFDK 291025Z AUTO 00000KT 5SM BR OVC007 21/21 A3003 RMK AO2 =
2015-07-29 06:15 METAR KFDK 291015Z AUTO 00000KT 5SM BR OVC007 21/21 A3003 RMK AO2 =
2015-07-29 05:55 METAR KFDK 290955Z AUTO 00000KT 5SM BR OVC007 21/21 A3003 RMK AO2 =
2015-07-29 05:35 METAR KFDK 290935Z AUTO 00000KT 3SM BR BKN009 BKN013 21/21 A3003 RMK AO2 =
2015-07-29 05:15 METAR KFDK 290915Z AUTO 00000KT 4SM BR BKN011 21/21 A3002 RMK AO2 =
2015-07-29 04:55 METAR KFDK 290855Z AUTO 00000KT 5SM BR OVC011 21/21 A3002 RMK AO2 =
2015-07-29 04:35 METAR KFDK 290835Z AUTO 00000KT 1/2SM FG BKN003 OVC011 20/20 A3002 RMK AO2 VIS
                 1/4V5 =
2015-07-29 04:15 METAR KFDK 290815Z AUTO 00000KT 1/2SM FG BKN003 BKN011 20/20 A3001 =
2015-07-29 03:55 METAR KFDK 290755Z AUTO 00000KT 1/2SM FG VV005 20/20 A3001 RMK AO2 =
2015-07-29 03:35 METAR KFDK 290735Z AUTO 00000KT 2SM BR CLR 20/20 A3001 =
2015-07-29 03:15 METAR KFDK 290715Z AUTO 00000KT 3SM BR SCT002 20/20 A3001 RMK AO2 =
2015-07-29 02:55 METAR KFDK 290655Z AUTO 00000KT 1/4SM FG OVC002 20/20 A3002 RMK AO2 =
2015-07-29 02:35 METAR KFDK 290635Z AUTO 00000KT 7SM CLR 21/21 A3002 RMK AO2 =
2015-07-29 02:15 METAR KFDK 290615Z AUTO 00000KT 5SM BR CLR 21/21 A3004 =
2015-07-29 01:55 METAR KFDK 290555Z AUTO 00000KT 7SM CLR 21/21 A3004 RMK AO2 =
2015-07-29 01:35 METAR KFDK 290535Z AUTO 12003KT 5SM BR CLR 21/21 A3004 RMK AO2 =
2015-07-29 01:15 METAR KFDK 290515Z AUTO 00000KT 2SM BR CLR 21/21 A3004 RMK AO2 =
2015-07-29 00:55 METAR KFDK 290455Z AUTO 00000KT 7SM CLR 22/22 A3003 RMK AO2 =
2015-07-29 00:35 METAR KFDK 290435Z AUTO 17003KT 10SM CLR 22/22 A3003 =
2015-07-29 00:15 METAR KFDK 290415Z AUTO 00000KT 10SM CLR 22/22 A3003 RMK AO2 =

Support USWX by starting your Amazon purchase here.